Time;durP1;ratioP1;P1;durP2;ratioP2;P2;SDS_P1;SDS_P2;PMS_P1;PMS_P2;Temp;Humidity;BMP_temperature;BMP_pressure;BME280_temperature;BME280_humidity;BME280_pressure;Samples;Min_cycle;Max_cycle;Signal;HPM_P1;HPM_P2
2024/02/02 00:00:18;;;;;;;7.23;4.20;;;4.90;99.90;;;;;;4848614;29;20655;-73
2024/02/02 00:02:44;;;;;;;7.43;3.63;;;4.90;99.90;;;;;;4850594;29;21478;-72
2024/02/02 00:05:09;;;;;;;5.93;3.30;;;4.90;99.90;;;;;;4849347;29;20407;-72
2024/02/02 00:07:35;;;;;;;13.07;4.53;;;5.00;99.90;;;;;;4847647;29;20218;-70
2024/02/02 00:10:01;;;;;;;8.33;4.60;;;4.90;99.90;;;;;;4853480;29;20288;-71
2024/02/02 00:12:27;;;;;;;12.00;4.40;;;5.00;99.90;;;;;;4856741;29;20174;-74
2024/02/02 00:14:53;;;;;;;6.03;3.63;;;4.90;99.90;;;;;;4856958;29;20193;-72
2024/02/02 00:17:19;;;;;;;10.23;4.30;;;4.90;99.90;;;;;;4856323;29;20468;-71
2024/02/02 00:19:45;;;;;;;12.80;5.47;;;4.90;99.90;;;;;;4857968;29;20205;-71
2024/02/02 00:22:11;;;;;;;9.70;4.33;;;4.90;99.90;;;;;;4858563;29;21026;-73
2024/02/02 00:24:37;;;;;;;11.87;4.73;;;4.90;99.90;;;;;;4851418;29;20434;-72
2024/02/02 00:27:03;;;;;;;9.70;4.83;;;4.90;99.90;;;;;;4847296;29;20452;-70
2024/02/02 00:29:28;;;;;;;7.70;4.10;;;4.90;99.90;;;;;;4847356;29;20213;-71
2024/02/02 00:31:54;;;;;;;14.10;4.07;;;4.90;99.90;;;;;;4850416;29;20193;-70
2024/02/02 00:34:19;;;;;;;9.97;4.17;;;4.90;99.90;;;;;;4851614;29;20284;-72
2024/02/02 00:36:45;;;;;;;5.50;3.13;;;4.90;99.90;;;;;;4852878;29;20213;-72
2024/02/02 00:39:11;;;;;;;6.03;3.53;;;4.90;99.90;;;;;;4852130;29;20213;-72
2024/02/02 00:41:36;;;;;;;12.43;2.90;;;4.90;99.90;;;;;;4850666;29;20282;-71
2024/02/02 00:44:04;;;;;;;8.00;3.63;;;4.90;99.90;;;;;;4845702;29;20247;-73
2024/02/02 00:46:30;;;;;;;9.23;3.03;;;4.80;99.90;;;;;;4847102;29;20452;-72
2024/02/02 00:48:55;;;;;;;7.57;3.20;;;4.80;99.90;;;;;;4848631;29;20907;-70
2024/02/02 00:51:21;;;;;;;6.10;3.20;;;4.70;99.90;;;;;;4844942;29;20208;-70
2024/02/02 00:53:47;;;;;;;13.20;4.00;;;4.80;99.90;;;;;;4843943;29;20213;-70
2024/02/02 00:56:13;;;;;;;7.87;3.20;;;4.70;99.90;;;;;;4841789;29;20525;-70
2024/02/02 00:58:38;;;;;;;10.30;4.57;;;4.70;99.90;;;;;;4844008;29;20695;-70
2024/02/02 01:01:04;;;;;;;15.73;5.33;;;4.60;99.90;;;;;;4843881;29;20513;-70
2024/02/02 01:03:33;;;;;;;16.13;4.60;;;4.60;99.90;;;;;;4845368;29;20213;-72
2024/02/02 01:05:59;;;;;;;11.00;4.53;;;4.60;99.90;;;;;;4843371;29;20232;-70
2024/02/02 01:08:24;;;;;;;7.57;3.03;;;4.60;99.90;;;;;;4842274;29;20514;-71
2024/02/02 01:10:50;;;;;;;10.10;4.33;;;4.60;99.90;;;;;;4842384;29;20517;-69
2024/02/02 01:13:16;;;;;;;7.27;3.20;;;4.70;99.90;;;;;;4843493;29;20587;-70
2024/02/02 01:15:41;;;;;;;4.87;3.13;;;4.70;99.90;;;;;;4843808;29;20216;-70
2024/02/02 01:18:07;;;;;;;7.50;3.40;;;4.80;99.90;;;;;;4848043;29;20560;-70
2024/02/02 01:20:34;;;;;;;10.07;4.47;;;4.90;99.90;;;;;;4845420;29;20271;-70
2024/02/02 01:22:59;;;;;;;15.13;4.37;;;4.90;99.90;;;;;;4844861;29;20490;-71
2024/02/02 01:25:29;;;;;;;8.60;3.60;;;5.00;99.90;;;;;;4844675;29;20911;-71
2024/02/02 01:27:55;;;;;;;8.33;3.80;;;5.00;99.90;;;;;;4843513;29;20185;-70
2024/02/02 01:30:23;;;;;;;8.73;3.17;;;5.00;99.90;;;;;;4843268;29;20517;-70
2024/02/02 01:32:49;;;;;;;5.80;3.50;;;5.00;99.90;;;;;;4845695;29;20426;-71
2024/02/02 01:35:17;;;;;;;7.67;3.80;;;4.90;99.90;;;;;;4844353;29;20488;-71
2024/02/02 01:37:45;;;;;;;17.17;4.07;;;5.00;99.90;;;;;;4843147;29;20418;-72
2024/02/02 01:40:13;;;;;;;8.73;3.60;;;4.90;99.90;;;;;;4844380;29;20430;-70
2024/02/02 01:42:40;;;;;;;9.70;3.60;;;4.90;99.90;;;;;;4847155;29;20454;-70
2024/02/02 01:45:06;;;;;;;10.00;3.83;;;5.00;99.90;;;;;;4847059;29;20474;-71
2024/02/02 01:47:32;;;;;;;9.27;2.93;;;5.00;99.90;;;;;;4845960;29;20501;-71
2024/02/02 01:49:57;;;;;;;9.30;3.13;;;5.00;99.90;;;;;;4849477;29;20645;-71
2024/02/02 01:52:23;;;;;;;6.00;2.80;;;5.00;99.90;;;;;;4849557;29;20192;-71
2024/02/02 01:54:49;;;;;;;7.50;3.27;;;5.00;99.90;;;;;;4846919;29;20236;-70
2024/02/02 01:57:15;;;;;;;10.40;3.53;;;5.00;99.90;;;;;;4847088;29;21472;-72
2024/02/02 01:59:40;;;;;;;7.23;3.17;;;4.90;99.90;;;;;;4847399;29;20923;-70
2024/02/02 02:02:07;;;;;;;11.30;3.87;;;4.80;99.90;;;;;;4846501;29;20246;-70
2024/02/02 02:04:33;;;;;;;9.80;3.97;;;4.80;99.90;;;;;;4847645;29;20500;-70
2024/02/02 02:06:58;;;;;;;12.70;4.10;;;4.70;99.90;;;;;;4846366;29;20457;-70
2024/02/02 02:09:24;;;;;;;8.43;4.00;;;4.70;99.90;;;;;;4847147;29;20559;-69
2024/02/02 02:11:51;;;;;;;7.27;3.20;;;4.70;99.90;;;;;;4847027;29;20527;-70
2024/02/02 02:14:17;;;;;;;7.07;2.73;;;4.60;99.90;;;;;;4847572;29;20487;-70
2024/02/02 02:16:42;;;;;;;6.43;2.70;;;4.70;99.90;;;;;;4847548;29;20454;-70
2024/02/02 02:19:13;;;;;;;5.23;3.10;;;4.60;99.90;;;;;;4849449;29;20287;-71
2024/02/02 02:21:39;;;;;;;5.57;3.00;;;4.60;99.90;;;;;;4849017;29;20304;-70
2024/02/02 02:24:04;;;;;;;8.43;2.63;;;4.60;99.90;;;;;;4847796;29;20454;-70
2024/02/02 02:26:30;;;;;;;8.20;3.17;;;4.70;99.90;;;;;;4846146;29;20553;-70
2024/02/02 02:28:56;;;;;;;7.83;2.00;;;4.70;99.90;;;;;;4846373;29;20235;-69
2024/02/02 02:31:22;;;;;;;6.17;2.80;;;4.80;99.90;;;;;;4846536;29;20708;-70
2024/02/02 02:33:47;;;;;;;5.50;2.47;;;4.80;99.90;;;;;;4847263;29;20278;-71
2024/02/02 02:36:16;;;;;;;7.57;2.53;;;4.90;99.90;;;;;;4846184;29;20225;-70
2024/02/02 02:38:45;;;;;;;5.40;2.50;;;5.00;99.90;;;;;;4846094;29;20231;-71
2024/02/02 02:41:11;;;;;;;7.40;2.77;;;5.00;99.90;;;;;;4845334;29;20438;-69
2024/02/02 02:43:36;;;;;;;3.60;2.57;;;5.10;99.90;;;;;;4846252;29;20437;-71
2024/02/02 02:46:02;;;;;;;8.43;3.27;;;5.20;99.90;;;;;;4846151;29;20939;-71
2024/02/02 02:48:28;;;;;;;6.27;2.40;;;5.20;99.90;;;;;;4847674;29;20252;-70
2024/02/02 02:50:53;;;;;;;5.57;2.77;;;5.20;99.90;;;;;;4845751;29;20464;-72
2024/02/02 02:53:19;;;;;;;9.73;2.77;;;5.30;99.90;;;;;;4846053;29;20201;-69
2024/02/02 02:55:45;;;;;;;11.97;4.13;;;5.30;99.90;;;;;;4845374;29;20213;-70
2024/02/02 02:58:12;;;;;;;6.80;2.70;;;5.30;99.90;;;;;;4845579;29;20256;-70
2024/02/02 03:00:37;;;;;;;9.23;3.03;;;5.30;99.90;;;;;;4845767;29;20212;-70
2024/02/02 03:03:03;;;;;;;6.20;3.53;;;5.40;99.90;;;;;;4846590;29;20437;-70
2024/02/02 03:05:29;;;;;;;17.00;5.20;;;5.40;99.90;;;;;;4845482;29;20219;-71
2024/02/02 03:07:55;;;;;;;11.60;3.57;;;5.40;99.90;;;;;;4846277;29;20196;-70
2024/02/02 03:10:24;;;;;;;8.50;3.10;;;5.40;99.90;;;;;;4846022;29;20433;-70
2024/02/02 03:12:53;;;;;;;8.17;3.80;;;5.50;99.90;;;;;;4845585;29;20434;-70
2024/02/02 03:15:19;;;;;;;12.77;4.37;;;5.50;99.90;;;;;;4845685;29;20422;-71
2024/02/02 03:17:45;;;;;;;11.63;4.27;;;5.40;99.90;;;;;;4845583;29;20487;-70
2024/02/02 03:20:11;;;;;;;5.53;2.90;;;5.50;99.90;;;;;;4850750;29;20463;-71
2024/02/02 03:22:38;;;;;;;8.90;3.40;;;5.50;99.90;;;;;;4849243;29;20483;-70
2024/02/02 03:25:07;;;;;;;6.67;3.23;;;5.40;99.90;;;;;;4846163;29;20193;-70
2024/02/02 03:27:33;;;;;;;7.57;3.23;;;5.50;99.90;;;;;;4846124;29;20797;-71
2024/02/02 03:29:59;;;;;;;6.13;2.83;;;5.50;99.90;;;;;;4845349;29;20485;-70
2024/02/02 03:32:25;;;;;;;12.10;4.00;;;5.50;99.90;;;;;;4845825;29;20460;-72
2024/02/02 03:34:50;;;;;;;9.97;3.90;;;5.50;99.90;;;;;;4850628;29;20199;-71
2024/02/02 03:37:18;;;;;;;6.80;3.00;;;5.50;99.90;;;;;;4845709;29;20204;-70
2024/02/02 03:39:45;;;;;;;10.10;3.27;;;5.60;99.90;;;;;;4845326;29;20201;-69
2024/02/02 03:42:14;;;;;;;11.20;3.47;;;5.60;99.90;;;;;;4845164;29;20712;-70
2024/02/02 03:44:40;;;;;;;10.10;3.33;;;5.60;99.90;;;;;;4844907;29;20469;-70
2024/02/02 03:47:05;;;;;;;9.10;2.83;;;5.60;99.90;;;;;;4844990;29;20587;-70
2024/02/02 03:49:34;;;;;;;7.30;3.37;;;5.60;99.90;;;;;;4849554;29;20319;-70
2024/02/02 03:52:05;;;;;;;7.47;4.00;;;5.60;99.90;;;;;;4845031;29;20438;-70
2024/02/02 03:54:32;;;;;;;15.50;4.43;;;5.60;99.90;;;;;;4844927;29;20423;-71
2024/02/02 03:56:58;;;;;;;9.10;3.90;;;5.60;99.90;;;;;;4844448;29;20447;-70
2024/02/02 03:59:23;;;;;;;9.20;3.60;;;5.60;99.90;;;;;;4845038;29;20430;-70
2024/02/02 04:01:49;;;;;;;10.03;3.47;;;5.60;99.90;;;;;;4844904;29;20418;-69
2024/02/02 04:04:15;;;;;;;4.33;2.43;;;5.60;99.90;;;;;;4848670;29;20215;-70
2024/02/02 04:06:40;;;;;;;6.43;2.63;;;5.60;99.90;;;;;;4846149;29;20497;-70
2024/02/02 04:09:08;;;;;;;10.50;3.50;;;5.60;99.90;;;;;;4844922;29;20626;-70
2024/02/02 04:11:37;;;;;;;11.63;5.10;;;5.60;99.90;;;;;;4844506;29;20268;-70
2024/02/02 04:14:02;;;;;;;8.00;4.70;;;5.60;99.90;;;;;;4844529;29;20483;-71
2024/02/02 04:16:28;;;;;;;8.93;3.90;;;5.60;99.90;;;;;;4844897;29;20445;-69
2024/02/02 04:18:54;;;;;;;12.23;4.00;;;5.60;99.90;;;;;;4848472;29;20208;-70
2024/02/02 04:21:19;;;;;;;6.23;3.57;;;5.60;99.90;;;;;;4849697;29;20197;-70
2024/02/02 04:23:45;;;;;;;9.03;3.17;;;5.70;99.90;;;;;;4844332;29;20599;-70
2024/02/02 04:26:10;;;;;;;9.10;3.50;;;5.60;99.90;;;;;;4844165;29;20390;-69
2024/02/02 04:28:36;;;;;;;11.07;3.67;;;5.60;99.90;;;;;;4844281;29;20224;-71
2024/02/02 04:31:02;;;;;;;6.60;3.50;;;5.70;99.90;;;;;;4843841;29;20222;-71
2024/02/02 04:33:27;;;;;;;11.20;4.40;;;5.70;99.90;;;;;;4846305;29;20197;-73
2024/02/02 04:35:53;;;;;;;11.20;3.73;;;5.60;99.90;;;;;;4844173;29;20209;-70
2024/02/02 04:38:18;;;;;;;9.13;4.00;;;5.60;99.90;;;;;;4844553;29;20330;-70
2024/02/02 04:40:47;;;;;;;19.00;4.70;;;5.70;99.90;;;;;;4844000;29;20588;-71
2024/02/02 04:43:13;;;;;;;10.50;4.60;;;5.60;99.90;;;;;;4844490;29;20201;-70
2024/02/02 04:45:40;;;;;;;8.27;4.00;;;5.70;99.90;;;;;;4843963;29;20544;-70
2024/02/02 04:48:06;;;;;;;11.73;4.50;;;5.70;99.90;;;;;;4848633;29;20211;-71
2024/02/02 04:50:32;;;;;;;16.50;4.63;;;5.60;99.90;;;;;;4847220;29;20426;-69
2024/02/02 04:52:58;;;;;;;7.67;3.50;;;5.60;99.90;;;;;;4844108;29;20442;-70
2024/02/02 04:55:23;;;;;;;9.20;4.10;;;5.60;99.90;;;;;;4844866;29;20653;-70
2024/02/02 04:57:49;;;;;;;12.30;4.20;;;5.50;99.90;;;;;;4844387;29;20177;-70
2024/02/02 05:00:15;;;;;;;12.20;4.80;;;5.60;99.90;;;;;;4843662;29;20190;-71
2024/02/02 05:02:41;;;;;;;22.33;5.07;;;5.50;99.90;;;;;;4845883;29;20236;-70
2024/02/02 05:05:06;;;;;;;14.93;5.30;;;5.60;99.90;;;;;;4847766;29;20442;-70
2024/02/02 05:07:33;;;;;;;24.13;5.80;;;5.50;99.90;;;;;;4846021;29;20201;-71
2024/02/02 05:09:58;;;;;;;17.03;4.53;;;5.50;99.90;;;;;;4842230;29;20288;-70
2024/02/02 05:12:24;;;;;;;19.87;5.83;;;5.60;99.90;;;;;;4846468;29;20414;-72
2024/02/02 05:14:49;;;;;;;10.37;4.57;;;5.50;99.90;;;;;;4846449;29;20201;-70
2024/02/02 05:17:16;;;;;;;10.50;4.40;;;5.60;99.90;;;;;;4845834;29;20228;-71
2024/02/02 05:19:42;;;;;;;11.40;3.80;;;5.50;99.90;;;;;;4863715;29;20584;-71
2024/02/02 05:22:08;;;;;;;13.77;3.87;;;5.50;99.90;;;;;;4847047;29;20453;-72
2024/02/02 05:24:34;;;;;;;9.57;4.20;;;5.50;99.90;;;;;;4847715;29;20414;-71
2024/02/02 05:27:00;;;;;;;9.37;4.37;;;5.50;99.90;;;;;;4844926;29;20381;-70
2024/02/02 05:29:26;;;;;;;14.27;4.80;;;5.50;99.90;;;;;;4846301;29;20942;-72
2024/02/02 05:31:51;;;;;;;11.83;3.90;;;5.60;99.90;;;;;;4846794;29;20253;-71
2024/02/02 05:34:17;;;;;;;11.70;5.37;;;5.60;99.90;;;;;;4847897;29;20203;-70
2024/02/02 05:36:44;;;;;;;12.63;4.50;;;5.60;99.90;;;;;;4846359;29;20461;-71
2024/02/02 05:39:10;;;;;;;16.03;4.23;;;5.70;99.90;;;;;;4846510;29;20257;-72
2024/02/02 05:41:36;;;;;;;12.67;4.60;;;5.70;99.90;;;;;;4845084;29;20446;-71
2024/02/02 05:44:01;;;;;;;15.73;4.10;;;5.70;99.90;;;;;;4845803;29;20213;-71
2024/02/02 05:46:27;;;;;;;19.77;5.87;;;5.70;99.90;;;;;;4848451;29;20221;-70
2024/02/02 05:48:52;;;;;;;13.50;4.87;;;5.70;99.90;;;;;;4845441;29;20292;-72
2024/02/02 05:51:18;;;;;;;13.63;4.30;;;5.70;99.90;;;;;;4852882;29;20237;-72
2024/02/02 05:53:43;;;;;;;7.90;3.33;;;5.70;99.90;;;;;;4853973;29;20188;-74
2024/02/02 05:56:09;;;;;;;13.17;3.90;;;5.70;99.90;;;;;;4854180;29;20221;-71
2024/02/02 05:58:35;;;;;;;21.17;4.73;;;5.70;99.90;;;;;;4854308;29;20193;-71
2024/02/02 06:01:00;;;;;;;8.40;4.47;;;5.70;99.90;;;;;;4853127;29;20205;-70
2024/02/02 06:03:26;;;;;;;10.77;3.83;;;5.70;99.90;;;;;;4856623;29;20199;-71
2024/02/02 06:05:51;;;;;;;12.03;4.83;;;5.70;99.90;;;;;;4849294;29;20297;-72
2024/02/02 06:08:17;;;;;;;10.73;4.27;;;5.70;99.90;;;;;;4846497;29;20221;-70
2024/02/02 06:10:43;;;;;;;11.70;3.83;;;5.70;99.90;;;;;;4846113;29;20202;-72
2024/02/02 06:13:08;;;;;;;11.83;4.17;;;5.70;99.90;;;;;;4845331;29;20498;-71
2024/02/02 06:15:34;;;;;;;13.40;4.80;;;5.70;99.90;;;;;;4851609;29;20209;-70
2024/02/02 06:18:00;;;;;;;12.43;4.27;;;5.60;99.90;;;;;;4856637;29;20204;-71
2024/02/02 06:20:25;;;;;;;10.03;4.30;;;5.70;99.90;;;;;;4849872;29;20213;-72
2024/02/02 06:22:51;;;;;;;11.60;4.87;;;5.70;99.90;;;;;;4846649;29;20200;-72
2024/02/02 06:25:17;;;;;;;18.53;5.40;;;5.70;99.90;;;;;;4846114;29;20186;-71
2024/02/02 06:27:43;;;;;;;18.93;5.37;;;5.70;99.90;;;;;;4849994;29;20199;-71
2024/02/02 06:30:09;;;;;;;12.30;5.23;;;5.60;99.90;;;;;;4864310;29;20549;-72
2024/02/02 06:32:40;;;;;;;9.70;3.93;;;5.60;99.90;;;;;;4850698;29;20450;-73
2024/02/02 06:35:06;;;;;;;8.77;3.90;;;5.50;99.90;;;;;;4855129;29;20458;-72
2024/02/02 06:37:32;;;;;;;11.23;5.30;;;5.40;99.90;;;;;;4853241;29;20497;-74
2024/02/02 06:40:03;;;;;;;12.50;6.10;;;5.40;99.90;;;;;;4850805;29;20434;-72
2024/02/02 06:42:29;;;;;;;9.03;4.10;;;5.40;99.90;;;;;;4849256;29;20430;-73
2024/02/02 06:44:56;;;;;;;10.30;5.50;;;5.40;99.90;;;;;;4851205;29;20481;-72
2024/02/02 06:47:23;;;;;;;11.13;5.67;;;5.40;99.90;;;;;;4850772;29;20209;-74
2024/02/02 06:49:48;;;;;;;10.40;3.93;;;5.30;99.90;;;;;;4853448;29;20499;-72
2024/02/02 06:52:14;;;;;;;12.10;4.60;;;5.40;99.90;;;;;;4853842;29;20446;-72
2024/02/02 06:54:41;;;;;;;6.23;3.30;;;5.40;99.90;;;;;;4851149;29;20185;-73
2024/02/02 06:57:07;;;;;;;7.83;4.07;;;5.30;99.90;;;;;;4850706;29;20458;-74
2024/02/02 06:59:32;;;;;;;9.20;5.30;;;5.40;99.90;;;;;;4849588;29;20417;-73
2024/02/02 07:01:59;;;;;;;8.37;4.17;;;5.20;99.90;;;;;;4851622;29;20197;-74
2024/02/02 07:04:25;;;;;;;15.30;5.60;;;5.20;99.90;;;;;;4853484;29;20207;-74
2024/02/02 07:06:52;;;;;;;12.47;4.43;;;5.30;99.90;;;;;;4849861;29;20483;-72
2024/02/02 07:09:17;;;;;;;7.17;4.00;;;5.20;99.90;;;;;;4850388;29;20462;-72
2024/02/02 07:11:54;;;;;;;11.50;4.73;;;5.30;99.90;;;;;;4849772;29;20433;-71
2024/02/02 07:14:44;;;;;;;9.40;4.13;;;5.30;99.90;;;;;;4851832;29;20291;-72
2024/02/02 07:17:40;;;;;;;13.83;5.37;;;5.40;99.90;;;;;;4853356;29;20460;-73
2024/02/02 07:20:30;;;;;;;14.70;5.80;;;5.30;99.90;;;;;;4855062;29;20851;-73
2024/02/02 07:23:01;;;;;;;11.00;4.80;;;5.40;99.90;;;;;;4851472;29;20862;-74
2024/02/02 07:25:31;;;;;;;9.07;5.43;;;5.40;99.90;;;;;;4849649;29;20474;-71
2024/02/02 07:28:06;;;;;;;12.07;4.30;;;5.50;99.90;;;;;;4850871;29;20490;-72
2024/02/02 07:30:43;;;;;;;17.20;6.10;;;5.60;99.90;;;;;;4851277;29;20458;-73
2024/02/02 07:33:25;;;;;;;12.47;5.83;;;5.60;99.90;;;;;;4855728;29;20436;-73
2024/02/02 07:35:52;;;;;;;9.70;4.17;;;5.50;99.90;;;;;;4852412;29;20482;-74
2024/02/02 07:38:27;;;;;;;12.80;5.73;;;5.50;99.90;;;;;;4848337;29;20425;-73
2024/02/02 07:41:01;;;;;;;11.37;4.73;;;5.50;99.90;;;;;;4850057;29;20402;-73
2024/02/02 07:43:32;;;;;;;9.33;4.70;;;5.50;99.90;;;;;;4849189;29;20429;-75
2024/02/02 07:46:04;;;;;;;9.40;5.30;;;5.50;99.90;;;;;;4848626;29;20579;-73
2024/02/02 07:48:30;;;;;;;12.47;5.43;;;5.40;99.90;;;;;;4852214;29;20558;-76
2024/02/02 07:50:56;;;;;;;9.40;5.40;;;5.40;99.90;;;;;;4864830;29;20422;-74
2024/02/02 07:53:21;;;;;;;10.17;4.50;;;5.50;99.90;;;;;;4865694;29;20429;-73
2024/02/02 07:55:47;;;;;;;10.87;5.30;;;5.50;99.90;;;;;;4851009;29;20259;-73
2024/02/02 07:58:12;;;;;;;11.47;4.90;;;5.50;99.90;;;;;;4851563;29;20266;-75
2024/02/02 08:00:38;;;;;;;12.03;5.30;;;5.60;99.90;;;;;;4852783;29;20197;-75
2024/02/02 08:03:06;;;;;;;11.97;5.40;;;5.50;99.90;;;;;;4853423;29;20579;-74
2024/02/02 08:05:36;;;;;;;7.03;4.10;;;5.50;99.90;;;;;;4866581;29;20249;-72
2024/02/02 08:08:03;;;;;;;8.33;4.50;;;5.50;99.90;;;;;;4852774;29;20454;-73
2024/02/02 08:10:28;;;;;;;8.53;4.70;;;5.50;99.90;;;;;;4856971;29;20434;-73
2024/02/02 08:12:54;;;;;;;11.37;4.13;;;5.50;99.90;;;;;;4852406;29;20438;-75
2024/02/02 08:15:20;;;;;;;5.47;3.30;;;5.60;99.90;;;;;;4851519;29;20205;-72
2024/02/02 08:17:45;;;;;;;6.17;3.37;;;5.60;99.90;;;;;;4851842;29;20527;-73
2024/02/02 08:20:12;;;;;;;10.83;5.53;;;5.80;99.90;;;;;;4854000;29;20235;-72
2024/02/02 08:22:37;;;;;;;7.80;4.20;;;5.80;99.90;;;;;;4851095;29;20209;-73
2024/02/02 08:25:03;;;;;;;6.90;4.37;;;5.90;99.90;;;;;;4847739;29;20482;-71
2024/02/02 08:27:29;;;;;;;6.93;4.20;;;5.90;99.90;;;;;;4850020;29;20197;-74
2024/02/02 08:29:54;;;;;;;5.80;3.77;;;6.00;99.90;;;;;;4851195;29;20458;-73
2024/02/02 08:32:21;;;;;;;13.80;4.50;;;6.20;99.90;;;;;;4850321;29;20201;-73
2024/02/02 08:34:47;;;;;;;8.57;3.63;;;6.20;99.90;;;;;;4852016;29;20276;-75
2024/02/02 08:37:14;;;;;;;8.53;4.00;;;6.30;99.90;;;;;;4852520;29;20466;-74
2024/02/02 08:39:40;;;;;;;9.27;4.83;;;6.30;99.90;;;;;;4850777;29;20205;-74
2024/02/02 08:42:19;;;;;;;13.47;6.00;;;6.40;99.90;;;;;;4851288;29;20430;-72
2024/02/02 08:44:45;;;;;;;12.90;5.63;;;6.60;99.90;;;;;;4850149;29;20486;-70
2024/02/02 08:47:11;;;;;;;16.93;7.03;;;6.60;99.90;;;;;;4848543;29;20775;-71
2024/02/02 08:49:55;;;;;;;17.20;6.10;;;6.60;99.90;;;;;;4855185;29;20886;-73
2024/02/02 08:52:38;;;;;;;19.73;6.10;;;6.70;99.90;;;;;;4856563;29;20429;-73
2024/02/02 08:55:30;;;;;;;12.00;5.53;;;6.70;99.90;;;;;;4865188;29;20429;-73
2024/02/02 08:58:27;;;;;;;15.40;4.67;;;6.80;99.90;;;;;;4852624;29;20451;-73
2024/02/02 09:00:53;;;;;;;11.03;4.60;;;6.90;99.90;;;;;;4831255;29;20449;-72
2024/02/02 09:03:44;;;;;;;10.90;5.10;;;6.90;99.90;;;;;;4852845;29;20422;-71
2024/02/02 09:06:29;;;;;;;10.63;5.03;;;6.90;99.90;;;;;;4850152;29;20446;-76
2024/02/02 09:08:54;;;;;;;10.73;3.80;;;7.00;99.90;;;;;;4850124;29;20543;-74
2024/02/02 09:11:41;;;;;;;8.60;3.90;;;7.10;99.90;;;;;;4850169;29;20863;-72
2024/02/02 09:14:14;;;;;;;9.77;4.67;;;7.10;99.90;;;;;;4794235;30;20255;-72
2024/02/02 09:16:43;;;;;;;11.73;4.57;;;7.20;99.90;;;;;;4794898;30;20663;-73
2024/02/02 09:19:29;;;;;;;11.17;4.23;;;7.30;99.90;;;;;;4750367;30;20599;-73
2024/02/02 09:21:58;;;;;;;10.40;3.27;;;7.50;99.90;;;;;;4795183;30;20759;-71
2024/02/02 09:24:28;;;;;;;6.33;4.30;;;7.60;99.90;;;;;;4792946;30;20506;-72
2024/02/02 09:26:56;;;;;;;10.17;3.40;;;7.80;99.90;;;;;;4792090;29;20449;-73
2024/02/02 09:29:22;;;;;;;10.70;3.87;;;7.90;99.90;;;;;;4792351;30;20469;-74
2024/02/02 09:31:47;;;;;;;10.80;3.87;;;8.00;98.90;;;;;;4779063;30;20447;-74
2024/02/02 09:34:20;;;;;;;13.20;3.17;;;8.10;97.30;;;;;;4782763;30;20441;-73
2024/02/02 09:36:47;;;;;;;10.40;5.80;;;8.20;94.00;;;;;;4796026;30;20223;-75
2024/02/02 09:39:48;;;;;;;9.40;3.23;;;8.10;91.90;;;;;;4798754;30;20553;-73
2024/02/02 09:42:33;;;;;;;7.40;2.47;;;8.30;91.00;;;;;;4793259;30;20449;-73
2024/02/02 09:45:37;;;;;;;6.63;2.67;;;8.30;91.50;;;;;;4792308;29;20481;-73
2024/02/02 09:48:18;;;;;;;9.37;3.00;;;8.50;90.30;;;;;;4799037;29;20518;-75
2024/02/02 09:51:31;;;;;;;7.90;3.03;;;8.50;89.70;;;;;;4812930;29;20615;-73
2024/02/02 09:54:14;;;;;;;11.13;3.43;;;8.60;86.60;;;;;;4845391;29;20418;-73
2024/02/02 09:56:59;;;;;;;10.10;2.73;;;8.60;84.80;;;;;;4849046;29;20533;-72
2024/02/02 09:59:38;;;;;;;17.67;3.43;;;8.60;84.90;;;;;;4850611;29;20427;-72
2024/02/02 10:02:22;;;;;;;9.33;3.53;;;8.60;85.40;;;;;;4853861;29;20418;-72
2024/02/02 10:04:59;;;;;;;7.90;3.37;;;8.60;84.50;;;;;;4857901;29;20508;-76
2024/02/02 10:07:38;;;;;;;14.80;3.50;;;8.70;84.60;;;;;;4853046;29;20454;-74
2024/02/02 10:10:26;;;;;;;12.60;4.50;;;8.60;84.00;;;;;;4855107;29;20462;-75
2024/02/02 10:13:19;;;;;;;13.00;3.87;;;8.60;83.70;;;;;;4855483;29;20434;-74
2024/02/02 10:16:12;;;;;;;14.80;2.90;;;8.60;83.00;;;;;;4854472;29;20446;-74
2024/02/02 10:18:48;;;;;;;14.47;2.63;;;8.70;83.00;;;;;;4857113;29;20481;-74
2024/02/02 10:21:32;;;;;;;13.83;2.93;;;8.70;82.60;;;;;;4856845;29;20441;-75
2024/02/02 10:24:27;;;;;;;19.67;3.10;;;8.70;82.80;;;;;;4854992;29;20502;-74
2024/02/02 10:27:22;;;;;;;10.90;3.10;;;8.70;82.40;;;;;;4857176;29;20760;-73
2024/02/02 10:30:10;;;;;;;9.43;3.07;;;8.80;82.40;;;;;;4856128;29;20477;-74
2024/02/02 10:33:13;;;;;;;15.17;2.80;;;8.80;83.10;;;;;;4868233;29;20464;-72
2024/02/02 10:35:39;;;;;;;11.37;3.10;;;9.00;83.00;;;;;;4851002;29;20500;-73
2024/02/02 10:38:25;;;;;;;10.83;2.47;;;9.00;81.90;;;;;;4853384;29;20845;-72
2024/02/02 10:41:11;;;;;;;10.10;2.57;;;9.00;81.90;;;;;;4838894;29;20276;-76
2024/02/02 10:43:41;;;;;;;9.27;2.80;;;9.00;82.10;;;;;;4851242;29;20907;-74
2024/02/02 10:46:35;;;;;;;14.67;4.00;;;9.00;81.70;;;;;;4854304;29;20503;-75
2024/02/02 10:49:33;;;;;;;10.33;3.03;;;9.10;81.50;;;;;;4849119;29;20465;-75
2024/02/02 10:52:37;;;;;;;6.13;2.80;;;9.00;81.20;;;;;;4870259;29;20429;-74
2024/02/02 10:55:21;;;;;;;11.23;3.10;;;9.00;81.70;;;;;;4856238;29;20429;-76
2024/02/02 10:58:14;;;;;;;8.83;2.90;;;9.10;82.10;;;;;;4858366;29;20436;-75
2024/02/02 11:00:53;;;;;;;11.20;2.73;;;9.00;82.20;;;;;;4872057;29;20525;-75
2024/02/02 11:03:33;;;;;;;7.20;2.30;;;9.10;82.00;;;;;;4855929;29;20494;-74
2024/02/02 11:06:18;;;;;;;17.33;3.93;;;9.10;82.50;;;;;;4852233;29;20549;-74
2024/02/02 11:08:54;;;;;;;13.00;3.27;;;9.30;83.00;;;;;;4840757;29;20511;-73
2024/02/02 11:11:25;;;;;;;13.17;4.10;;;9.20;83.80;;;;;;4853607;29;20426;-73
2024/02/02 11:14:09;;;;;;;12.17;3.60;;;9.20;84.40;;;;;;4848586;29;20441;-75
2024/02/02 11:16:53;;;;;;;13.43;3.00;;;9.30;84.80;;;;;;4855962;29;20434;-74
2024/02/02 11:19:33;;;;;;;10.30;3.30;;;9.50;83.90;;;;;;4839321;29;20459;-73
2024/02/02 11:22:20;;;;;;;11.30;2.93;;;9.50;84.60;;;;;;4857357;29;20453;-77
2024/02/02 11:25:18;;;;;;;9.47;3.33;;;9.40;85.30;;;;;;4854759;29;20417;-74
2024/02/02 11:27:55;;;;;;;11.00;2.73;;;9.50;85.40;;;;;;4858304;29;20510;-75
2024/02/02 11:30:49;;;;;;;10.97;3.70;;;9.60;85.90;;;;;;4858741;29;21608;-72
2024/02/02 11:33:50;;;;;;;9.00;3.07;;;9.60;86.20;;;;;;4863572;29;20441;-74
2024/02/02 11:36:54;;;;;;;12.10;3.03;;;9.60;86.20;;;;;;4853371;29;20449;-75
2024/02/02 11:39:30;;;;;;;11.43;3.17;;;9.70;86.10;;;;;;4859242;29;20440;-77
2024/02/02 11:41:58;;;;;;;7.90;3.13;;;9.80;85.90;;;;;;4854745;29;20434;-74
2024/02/02 11:44:25;;;;;;;17.03;3.37;;;9.90;86.10;;;;;;4854749;29;20466;-75
2024/02/02 11:46:53;;;;;;;14.10;3.33;;;10.00;83.80;;;;;;4869818;29;20462;-74
2024/02/02 11:49:23;;;;;;;8.70;2.70;;;10.00;83.20;;;;;;4841306;29;20518;-73
2024/02/02 11:51:54;;;;;;;9.63;3.33;;;10.10;83.60;;;;;;4854610;29;20434;-75
2024/02/02 11:54:39;;;;;;;13.73;4.70;;;10.20;83.90;;;;;;4856936;29;20422;-75
2024/02/02 11:57:11;;;;;;;17.70;4.20;;;10.30;82.60;;;;;;4855485;29;20465;-77
2024/02/02 11:59:43;;;;;;;9.70;3.10;;;10.30;82.60;;;;;;4852054;29;20434;-75
2024/02/02 12:02:17;;;;;;;9.90;3.30;;;10.30;83.20;;;;;;4855158;29;20450;-75
2024/02/02 12:05:01;;;;;;;13.73;3.70;;;10.40;83.10;;;;;;4857988;29;20449;-78
2024/02/02 12:07:39;;;;;;;9.43;3.73;;;10.30;83.20;;;;;;4856614;29;20442;-73
2024/02/02 12:10:08;;;;;;;15.63;3.83;;;10.40;83.10;;;;;;4857520;29;20501;-77
2024/02/02 12:12:36;;;;;;;11.40;3.83;;;10.50;82.90;;;;;;4858668;29;20465;-77
2024/02/02 12:15:01;;;;;;;8.20;3.27;;;10.50;82.60;;;;;;4858126;29;20489;-75
2024/02/02 12:17:28;;;;;;;8.30;3.70;;;10.60;82.90;;;;;;4859295;29;20434;-75
2024/02/02 12:19:57;;;;;;;11.43;3.60;;;10.70;82.40;;;;;;4855157;29;20195;-75
2024/02/02 12:22:23;;;;;;;14.60;3.83;;;10.80;82.10;;;;;;4859177;29;20439;-76
2024/02/02 12:24:49;;;;;;;9.23;3.23;;;10.80;81.50;;;;;;4853751;29;20954;-77
2024/02/02 12:27:15;;;;;;;6.27;2.50;;;10.70;81.80;;;;;;4842661;29;20500;-77
2024/02/02 12:29:41;;;;;;;7.70;3.87;;;10.70;82.30;;;;;;4856215;29;20493;-75
2024/02/02 12:32:10;;;;;;;10.50;4.30;;;10.70;82.00;;;;;;4853333;29;20205;-77
2024/02/02 12:34:37;;;;;;;7.03;3.20;;;10.70;82.50;;;;;;4860226;29;20439;-76
2024/02/02 12:37:04;;;;;;;14.13;3.80;;;10.70;83.00;;;;;;4856538;29;20456;-74
2024/02/02 12:39:36;;;;;;;7.07;3.10;;;10.70;83.30;;;;;;4852196;29;20432;-76
2024/02/02 12:42:03;;;;;;;9.87;3.37;;;10.70;83.70;;;;;;4868610;29;20424;-77
2024/02/02 12:44:30;;;;;;;7.73;2.83;;;10.70;83.80;;;;;;4853600;29;20474;-72
2024/02/02 12:46:55;;;;;;;12.33;3.60;;;10.80;83.60;;;;;;4856007;29;20451;-75
2024/02/02 12:49:21;;;;;;;10.93;3.93;;;10.80;84.00;;;;;;4854657;29;20479;-76
2024/02/02 12:51:47;;;;;;;8.00;3.27;;;10.80;84.20;;;;;;4854195;29;20217;-75
2024/02/02 12:54:13;;;;;;;7.40;3.80;;;10.70;84.70;;;;;;4853753;29;20179;-75
2024/02/02 12:56:39;;;;;;;11.43;3.13;;;10.70;84.60;;;;;;4852664;29;20484;-73
2024/02/02 12:59:05;;;;;;;9.13;3.13;;;10.80;84.30;;;;;;4852390;29;20198;-75
2024/02/02 13:01:34;;;;;;;8.13;3.07;;;10.80;85.00;;;;;;4853583;29;20250;-75
2024/02/02 13:04:00;;;;;;;8.87;3.10;;;10.80;85.00;;;;;;4857614;29;20442;-76
2024/02/02 13:06:26;;;;;;;9.47;3.43;;;10.80;85.20;;;;;;4855166;29;20487;-75